Bruner, MO (65620)

4:52 AM CDT on March 30, 2015 (GMT -0500)
Rogersville | | Change Station
CLOSE
Current Station
Personal Weather Station
Location: Rogersville, MO
Elevation: 1453 ft
Nearby Weather Stations

Elev 1453 ft 37.09 °N, 93.10 °W | Updated 24 seconds ago

Partly Cloudy
Partly Cloudy
41.4 °F
Feels Like 41 °F
N
0.0
Wind Variable Wind from NNW
Gusts 0.0 mph

Today
High -- | Low -- °F
--% Chance of Precip.
Yesterday
High -- | Low -- °F
Precip. -- in
7:00 AM 7:32 PM
Waxing Gibbous, 78% visible
Pressure 30.17 in
Visibility 3.0 miles
Clouds Few 200 ft
Windchill 41 °F
Dew Point 39 °F
Humidity 90%
Rainfall 0.00 in
Snow Depth Not available.
UV 0 out of 12
Pollen 10.80 out of 12
Air Quality Not available.
Flu Activity Not available.
SPECI KSGF 300923Z 00000KT 3SM BR FEW002 02/01 A3017 RMK AO2 T00170006

More Conditions Fewer Conditions

Pressure 30.17 in
Visibility 3.0 miles
Clouds Few 200 ft
Windchill 41 °F
Dew Point 39 °F
Humidity 90%
Rainfall 0.00 in
Snow Depth Not available.
UV 0 out of 12
Pollen 10.80 out of 12
Air Quality Not available.
Flu Activity Not available.
SPECI KSGF 300923Z 00000KT 3SM BR FEW002 02/01 A3017 RMK AO2 T00170006

More Conditions Fewer Conditions

10-Day Weather Forecast

Almanac

Astronomy

Mar. 30, 2015 Rise Set
Actual Time
Civil Twilight
Nautical Twilight
Astronomical Twilight
Moon
Length of Visible Light
Length of Day
Tomorrow will be .
, % of the Moon is Illuminated

Today's Extremes

State Highs State Lows

Community

WunderPhotos

Upload Photos

1,809,451 photos uploaded!

WunderBlogs® & News

Nearby

Air Quality

  Air Quality AQ Index Pollutant
Not available.

Snow Depth

Station Depth Elevation

Earthquake Activity

City Distance Mag. Time & Date
Minimum magnitude displayed is 2.5.

Coastal Water Temperatures

Place Temperature

Stations

Nearby Weather Stations

Station Location Temp. Windchill Dew Point Humidity Wind Precip. Elev Updated Type